Aérodrome :







RETROUVEZ-NOUS SUR...

 
LOGIN :

S'inscrire | Disclaimer

   EN    FR    IT 

 









Légende :    VFR   VFR Marginal   IFR   IFR Intensif   IFR Très Intensif
Visi : 
Plafond : 
>= 8 km
>= 3000ft
5 à 8 km
1000 à 3000 ft
1500m à 5 km
500 à 1000 ft
800 à 1500m
200 à 500 ft
< 800m
< 200 ft
Symboles :   Orages  Brouillard  Fortes neiges  Fortes précipitations  Vent > 20 kt






- Altitude de l'aérodrome : 787 ft
- Code IATA : RUT


KRUT - Rutland - Southern Vermont Regional

DERNIER METAR :
  • 221156Z AUTO 12005KT 10SM BKN047 OVC060 07/04 A2965 RMK AO2 SLP042 60000 70002 T00670039 10072 20022 56020 $

METARs EXPIRÉS :
  • 221148Z AUTO 12006KT 10SM FEW031 BKN047 OVC060 07/04 A2966 RMK AO2 $
  • 221056Z AUTO 14006KT 10SM OVC029 04/03 A2968 RMK AO2 SLP053 T00440033 $
  • 220956Z AUTO 14005KT 10SM OVC029 04/03 A2972 RMK AO2 UPB03E27RAB27E39 SLP064 P0000 T00390028 $

TAF KRUT
Valide du 22 à 12h jusqu'au 23 à 12h UTC


221143Z 2212/2312 15008KT P6SM OVC028 WS020/25045KT
FM221600 24012G22KT P6SM VCSH OVC025
FM221800 26016G29KT P6SM BKN035
FM230800 27006KT P6SM FEW200



MET'MAP, la Météo Aéronautique d'un coup d'oeil ! - Copyright ORBIFLY Décembre 2007 - Disclaimer

ORBIFLY MET'MAP TEAM :

Programmation & Développement : Alexandra Zaïnal
Conception & Développement : Baudouin d'Aumeries
Co-Programmation & Développement : Marc-Olivier Méhu
Soutien technique & logistique : Manuel Goepfert

Contact : metmap@orbifly.com




SOURCES & CREDITS :

   NOAA